Kyle, TX

6:42 AM CDT on August 31, 2014 (GMT -0500)
Austin | Change Station
CLOSE
Current Station
Airport
Location: Austin,
Elevation: 656 ft
Nearby Weather Stations

Elev 656 ft 30.32 °N, 97.76 °W | Updated 51 minutes ago

Clear
Clear
75 °F
Feels Like 75 °F
N
4
Wind Variable Wind from South

Today
High -- | Low -- °F
--% Chance of Precip.
Yesterday
High -- | Low -- °F
Precip. -- in
7:07 AM 7:54 PM
Waxing Crescent, 30% visible
Pressure 29.93 in
Visibility 10.0 miles
Clouds Clear
Dew Point 72 °F
Humidity 90%
Rainfall 0.00 in
Snow Depth Not available.
UV 0 out of 12
Pollen 7.20 out of 12
Ozone Good
PM2.5 Good
Flu Activity Not available.
METAR KATT 311051Z AUTO 18003KT 10SM CLR 24/22 A2997 RMK AO2 SLP134 T02390222

More Conditions Fewer Conditions

Pressure 29.93 in
Visibility 10.0 miles
Clouds Clear
Dew Point 72 °F
Humidity 90%
Rainfall 0.00 in
Snow Depth Not available.
UV 0 out of 12
Pollen 7.20 out of 12
Ozone Good
PM2.5 Good
Flu Activity Not available.
METAR KATT 311051Z AUTO 18003KT 10SM CLR 24/22 A2997 RMK AO2 SLP134 T02390222

More Conditions Fewer Conditions

10-Day Weather Forecast

Almanac

Astronomy

Aug. 31, 2014 Rise Set
Actual Time 7:07 AM CDT 7:54 PM CDT
Civil Twilight 6:43 AM CDT 8:19 PM CDT
Nautical Twilight 6:14 AM CDT 8:47 PM CDT
Astronomical Twilight 5:45 AM CDT 9:17 PM CDT
Moon 12:29 PM CDT 11:38 PM CDT
Length of Visible Light 13h 35m
Length of Day
12h 47m
Tomorrow will be 1m 44s shorter.
Waxing Crescent, 30% of the Moon is Illuminated
Today
Waxing Crescent
Sep 2
First Quarter
Sep 8
Full
Sep 15
Last Quarter
Sep 24
New

Today's Extremes

State Highs State Lows

Community

WunderPhotos

Upload Photos

1,748,848 photos uploaded!

Nearby

Air Quality

  Air Quality AQ Index Pollutant
Yesterday Good
OZONE
Yesterday Good
PM2.5
Current Good
OZONE
Current Good
PM2.5
Sunday Good
OZONE
Sunday Good
PM10
Monday Good
OZONE
Monday Good
PM10
Tuesday Good
OZONE
Tuesday Good
PM10

Snow Depth

Station Depth Elevation
No new snow has been reported.

Earthquake Activity

City Distance Mag. Time & Date
No recent earthquake activity has been reported nearby.
Minimum magnitude displayed is 2.5.

Coastal Water Temperatures

Place Temperature
No Stations Reporting

Nearby Weather Stations